• Join FlightAware (Why Join?)
  • Login
  • US Flag 
01:38PM EDT


 

Airport Tracker/Info


-or-


 

Live Flight TrackerFlight Track Log ✈ N76055 ✈ 13-Apr-2013 ✈ EBBR / BRU - KIAD

Flight Track Log - Related Links

Times and Time Zones

All times are in EDT time to prevent confusion due to time zone crossing. See the N76055 flight status page for this flight to view local times or setup timezone preferences in your user account.

Time Position Orientation Groundspeed Altitude Reporting Facility
EDT Latitude Longitude Course Direction KTS MPH feet Rate Location/Type
06:15AM 50.8930 4.4330 263° West 181 208 1,700  Level FlightAware
06:15AM 50.8970 4.4040 282° West 190 219 2,500 2,160 Climbing FlightAware
06:16AM 50.9080 4.3640 294° West 203 234 3,500 1,680 Climbing FlightAware
06:16AM 50.9140 4.3390 291° West 224 258 3,800 1,500 Climbing FlightAware
06:16AM 50.9230 4.3060 293° West 235 270 4,500 2,160 Climbing FlightAware
06:17AM 50.9410 4.2550 299° West 253 291 5,800 2,520 Climbing FlightAware
06:17AM 50.9520 4.2320 307° West 262 302 6,400 2,520 Climbing FlightAware
06:18AM 50.9620 4.2070 302° West 259 298 7,300 3,000 Climbing FlightAware
06:18AM 50.9940 4.1210 301° West 262 302 9,900 2,580 Climbing FlightAware
06:19AM 51.0220 4.0480 301° West 288 331 11,200 1,500 Climbing FlightAware
06:20AM 51.0520 3.9720 302° West 334 384 11,900 1,380 Climbing FlightAware
06:20AM 51.0840 3.8880 302° West 355 409 13,100  Climbing FlightAware
06:20AM 51.0893 3.8778 302° West 384 442 11,900 2,640 Descending FlightAware UK
06:21AM 51.1260 3.7810 302° West 368 423 15,100 2,940 Climbing FlightAware
06:22AM 51.1690 3.6700 302° West 394 453 16,300 1,740 Climbing FlightAware
06:23AM 51.2000 3.5870 301° West 395 455 17,600 2,100 Climbing FlightAware
06:23AM 51.2460 3.4540 299° West 408 470 19,300 1,020 Climbing FlightAware
06:24AM 51.2629 3.3633 299° West 454 522 18,900 2,100 Descending FlightAware UK
06:24AM 51.2670 3.3360 299° West 413 475 20,700 3,480 Climbing FlightAware
06:25AM 51.2850 3.2200 284° West 421 484 21,800 60 Climbing FlightAware
06:25AM 51.2933 3.1674 284° West 466 536 20,800 1,680 Descending FlightAware UK
06:25AM 51.3050 3.0820 284° West 429 494 23,100 3,000 Climbing FlightAware
06:26AM 51.3230 2.9550 283° West 435 501 24,300 1,620 Climbing FlightAware
06:27AM 51.3400 2.8380 283° West 438 504 25,300 660 Climbing FlightAware
06:27AM 51.3516 2.7557 283° West 480 552 25,000 2,640 Descending FlightAware UK
06:27AM 51.3600 2.6960 283° West 424 488 27,300 3,660 Climbing FlightAware
06:28AM 51.3740 2.5740 280° West 414 476 28,800 960 Climbing FlightAware
06:28AM 51.3826 2.5019 280° West 476 548 28,300 -480 Descending FlightAware UK
06:29AM 51.3890 2.4500 281° West 470 541 28,500 4,380 Climbing FlightAware UK
06:29AM 51.3900 2.4440 281° West 393 452 30,000 -180 Climbing FlightAware
06:29AM 51.4031 2.3331 281° West 466 536 28,400  Descending FlightAware UK
06:30AM 51.4050 2.3260 281° West 384 442 30,000 9,600 Climbing FlightAware
06:30AM 51.4080 2.2994 280° West 384 442 30,000 -3,720 Level FlightAware ADS-B
06:30AM 51.4133 2.2503 280° West 468 539 28,400  Descending FlightAware UK
06:30AM 51.4209 2.1941 280° West 387 445 30,000 120 Climbing FlightAware ADS-B
06:31AM 51.4255 2.1488 280° West 470 541 28,500  Descending FlightAware UK
06:31AM 51.4336 2.0899 280° West 391 450 30,000  Climbing FlightAware ADS-B
06:31AM 51.4392 2.0301 280° West 474 545 28,500  Descending FlightAware UK
06:31AM 51.4448 1.9961 280° West 394 453 30,000 2,160 Climbing FlightAware ADS-B
06:32AM 51.4554 1.9083 281° West 395 455 30,000  Level FlightAware ADS-B
06:32AM 51.4660 1.8219 281° West 396 456 30,000 -1,860 Level FlightAware ADS-B
06:33AM 51.4701 1.7718 281° West 480 552 28,500  Descending FlightAware UK
06:33AM 51.4772 1.7284 281° West 395 455 30,000 1,740 Climbing FlightAware ADS-B
06:34AM 51.4899 1.6218 281° West 395 455 30,000 -1,560 Level FlightAware ADS-B
06:34AM 51.4942 1.5660 281° West 478 550 28,500  Descending FlightAware UK
06:34AM 51.5007 1.5301 281° West 395 455 30,000  Climbing FlightAware ADS-B
06:34AM 51.5038 1.4800 281° West 478 550 28,500  Descending FlightAware UK
06:35AM 51.5108 1.4424 281° West 394 453 30,000  Climbing FlightAware ADS-B
06:35AM 51.5135 1.3939 281° West 478 550 28,500  Descending FlightAware UK
06:35AM 51.5220 1.3444 281° West 393 452 30,000  Climbing FlightAware ADS-B
06:36AM 51.5251 1.2908 281° West 478 550 28,500 -2,580 Descending FlightAware UK
06:36AM 51.5308 1.2394 280° West 478 550 28,400 3,180 Descending FlightAware UK
06:36AM 51.5350 1.2290 280° West 392 451 30,000 2,460 Climbing FlightAware
06:37AM 51.5472 1.1241 281° West 390 449 30,000 -2,220 Level FlightAware ADS-B
06:37AM 51.5478 1.0865 281° West 478 550 28,400  Descending FlightAware UK
06:37AM 51.5585 1.0235 281° West 388 447 30,000  Climbing FlightAware ADS-B
06:37AM 51.5607 0.9682 281° West 476 548 28,400  Descending FlightAware UK
06:38AM 51.5687 0.9324 281° West 387 445 30,000  Climbing FlightAware ADS-B
06:38AM 51.5698 0.8838 281° West 474 545 28,400  Descending FlightAware UK
06:38AM 51.5774 0.8531 281° West 386 444 30,000 6,000 Climbing FlightAware ADS-B
06:38AM 51.5786 0.8344 276° West 388 447 30,000  Level FlightAware ADS-B
06:38AM 51.5784 0.8035 269° West 392 451 30,000  Level FlightAware ADS-B
06:39AM 51.5756 0.7154 267° West 390 449 30,000  Level FlightAware ADS-B
06:39AM 51.5744 0.6255 269° West 389 448 30,000  Level FlightAware ADS-B
06:40AM 51.5729 0.5387 268° West 388 447 30,000  Level FlightAware ADS-B
06:40AM 51.5705 0.4462 268° West 389 448 30,000  Level FlightAware ADS-B
06:41AM 51.5681 0.3638 267° West 389 448 30,000 -1,920 Level FlightAware ADS-B
06:41AM 51.5599 0.3144 267° West 470 541 28,500  Descending FlightAware UK
06:41AM 51.5654 0.2775 267° West 389 448 30,000  Climbing FlightAware ADS-B
06:42AM 51.5568 0.2280 267° West 472 543 28,500  Descending FlightAware UK
06:42AM 51.5623 0.1896 267° West 389 448 30,000 2,040 Climbing FlightAware ADS-B
06:42AM 51.5590 0.1002 267° West 389 448 30,000 -1,740 Level FlightAware ADS-B
06:43AM 51.5492 0.0388 267° West 472 543 28,500  Descending FlightAware UK
06:43AM 51.5555 0.0079 267° West 389 448 30,000  Climbing FlightAware ADS-B
06:43AM 51.5456 -0.0475 267° West 470 541 28,500  Descending FlightAware UK
06:44AM 51.5521 -0.0805 267° West 389 448 30,000 2,400 Climbing FlightAware ADS-B
06:44AM 51.5494 -0.1547 267° West 388 447 30,000  Level FlightAware ADS-B
06:44AM 51.5490 -0.1827 269° West 387 445 30,000  Level FlightAware ADS-B
06:44AM 51.5499 -0.2308 272° West 385 443 30,000  Level FlightAware ADS-B
06:45AM 51.5548 -0.3139 275° West 384 442 30,000  Level FlightAware ADS-B
06:45AM 51.5630 -0.4007 279° West 385 443 30,000  Level FlightAware ADS-B
06:46AM 51.5708 -0.4865 278° West 384 442 30,000  Level FlightAware ADS-B
06:46AM 51.5788 -0.5722 279° West 386 444 30,000  Level FlightAware ADS-B
06:47AM 51.5872 -0.6577 279° West 387 445 30,000  Level FlightAware ADS-B
06:47AM 51.5955 -0.7435 279° West 387 445 30,000 -1,980 Level FlightAware ADS-B
06:48AM 51.5910 -0.7962 279° West 474 545 28,400  Descending FlightAware UK
06:48AM 51.6039 -0.8314 279° West 387 445 30,000 2,220 Climbing FlightAware ADS-B
06:48AM 51.6121 -0.9170 279° West 388 447 30,000 -1,920 Level FlightAware ADS-B
06:49AM 51.6064 -0.9667 279° West 470 541 28,500  Descending FlightAware UK
06:49AM 51.6202 -1.0041 279° West 388 447 30,000 2,040 Climbing FlightAware ADS-B
06:49AM 51.6282 -1.0922 278° West 389 448 30,000 -1,920 Level FlightAware ADS-B
06:50AM 51.6219 -1.1377 278° West 474 545 28,500  Descending FlightAware UK
06:50AM 51.6361 -1.1775 278° West 390 449 30,000  Climbing FlightAware ADS-B
06:50AM 51.6294 -1.2233 278° West 476 548 28,500  Descending FlightAware UK
06:50AM 51.6437 -1.2653 278° West 391 450 30,000  Climbing FlightAware ADS-B
06:51AM 51.6378 -1.3272 278° West 474 545 28,500  Descending FlightAware UK
06:51AM 51.6507 -1.3522 278° West 392 451 30,000 2,220 Climbing FlightAware ADS-B
06:52AM 51.6581 -1.4419 278° West 392 451 30,000  Level FlightAware ADS-B
06:52AM 51.6634 -1.5085 277° West 393 452 30,000  Level FlightAware ADS-B
06:52AM 51.6679 -1.5445 281° West 392 451 30,000  Level FlightAware ADS-B
06:52AM 51.6779 -1.5969 287° West 393 452 30,000  Level FlightAware ADS-B
06:53AM 51.6890 -1.6410 292° West 395 455 30,000  Level FlightAware ADS-B
06:53AM 51.6996 -1.6754 296° West 396 456 30,000 -2,760 Level FlightAware ADS-B
06:53AM 51.7072 -1.7276 296° West 476 548 28,500  Descending FlightAware UK
06:53AM 51.7304 -1.7560 296° West 397 457 30,000 2,100 Climbing FlightAware ADS-B
06:54AM 51.7595 -1.8326 302° West 397 457 30,000  Level FlightAware ADS-B
06:54AM 51.7895 -1.9098 302° West 398 458 30,000 -1,920 Level FlightAware ADS-B
06:55AM 51.7936 -1.9539 302° West 474 545 28,500  Descending FlightAware UK
06:55AM 51.8194 -1.9862 302° West 399 459 30,000  Climbing FlightAware ADS-B
06:55AM 51.8231 -2.0294 302° West 472 543 28,500  Descending FlightAware UK
06:55AM 51.8502 -2.0654 302° West 400 460 30,000 1,860 Climbing FlightAware ADS-B
06:56AM 51.8817 -2.1463 302° West 401 461 30,000 -1,800 Level FlightAware ADS-B
06:56AM 51.8878 -2.1963 302° West 472 543 28,500  Descending FlightAware UK
06:57AM 51.9119 -2.2235 302° West 402 463 30,000  Climbing FlightAware ADS-B
06:57AM 51.9173 -2.2729 302° West 474 545 28,500  Descending FlightAware UK
06:57AM 51.9422 -2.3019 302° West 402 463 30,000  Climbing FlightAware ADS-B
06:57AM 51.9525 -2.3651 302° West 474 545 28,500  Descending FlightAware UK
06:58AM 51.9723 -2.3812 302° West 403 464 30,000  Climbing FlightAware ADS-B
06:58AM 51.9755 -2.4266 302° West 474 545 28,500  Descending FlightAware UK
06:58AM 52.0032 -2.4636 302° West 404 465 30,000  Climbing FlightAware ADS-B
06:58AM 52.0105 -2.5196 302° West 474 545 28,500  Descending FlightAware UK
06:59AM 52.0340 -2.5456 302° West 403 464 30,000  Climbing FlightAware ADS-B
06:59AM 52.0394 -2.5975 302° West 474 545 28,500  Descending FlightAware UK
06:59AM 52.0610 -2.6180 302° West 403 464 30,000  Climbing FlightAware
06:59AM 52.0683 -2.6755 302° West 472 543 28,500 -2,520 Descending FlightAware UK
07:00AM 52.0857 -2.7224 301° West 472 543 28,500 3,300 Level FlightAware UK
07:00AM 52.1020 -2.7270 301° West 404 465 30,000  Climbing FlightAware
07:00AM 52.1202 -2.8163 301° West 476 548 28,500  Descending FlightAware UK
07:01AM 52.1400 -2.8320 301° West 401 461 30,000 1,920 Climbing FlightAware
07:01AM 52.1762 -2.9309 301° West 405 466 30,000 -1,740 Level FlightAware ADS-B
07:01AM 52.1831 -2.9893 301° West 476 548 28,500  Descending FlightAware UK
07:02AM 52.2051 -3.0107 301° West 404 465 30,000 2,160 Climbing FlightAware ADS-B
07:02AM 52.2339 -3.0901 301° West 404 465 30,000  Level FlightAware ADS-B
07:03AM 52.2630 -3.1710 300° West 399 459 30,000  Level FlightAware
07:03AM 52.2712 -3.1934 301° West 404 465 30,000 -4,740 Level FlightAware ADS-B
07:03AM 52.2738 -3.2410 301° West 476 548 28,500  Descending FlightAware UK
07:03AM 52.3031 -3.2824 301° West 403 464 30,000  Climbing FlightAware ADS-B
07:04AM 52.3135 -3.3515 301° West 476 548 28,500  Descending FlightAware UK
07:04AM 52.3324 -3.3638 301° West 403 464 30,000  Climbing FlightAware ADS-B
07:04AM 52.3420 -3.4303 301° West 476 548 28,500  Descending FlightAware UK
07:04AM 52.3628 -3.4475 301° West 404 465 30,000 2,100 Climbing FlightAware ADS-B
07:05AM 52.3938 -3.5335 301° West 404 465 30,000  Level FlightAware ADS-B
07:06AM 52.4266 -3.6239 301° West 404 465 30,000 -1,500 Level FlightAware ADS-B
07:06AM 52.4391 -3.6980 301° West 474 545 28,500  Descending FlightAware UK
07:06AM 52.4559 -3.7045 301° West 404 465 30,000 2,460 Climbing FlightAware ADS-B
07:07AM 52.4856 -3.7854 301° West 404 465 30,000 -1,500 Level FlightAware ADS-B
07:07AM 52.5027 -3.8713 301° West 474 545 28,500 -1,680 Descending FlightAware UK
07:07AM 52.5261 -3.9343 301° West 476 548 28,500 2,880 Level FlightAware UK
07:08AM 52.5400 -3.9350 301° West 404 465 30,000  Climbing FlightAware
07:08AM 52.5489 -3.9972 301° West 476 548 28,500 -2,580 Descending FlightAware UK
07:08AM 52.5661 -4.0456 300° West 476 548 28,500 3,720 Level FlightAware UK
07:08AM 52.5790 -4.0440 300° West 403 464 30,000  Climbing FlightAware
07:09AM 52.5995 -4.1410 300° West 474 545 28,500  Descending FlightAware UK
07:09AM 52.6220 -4.1660 300° West 403 464 30,000  Climbing FlightAware
07:09AM 52.6386 -4.2530 300° West 476 548 28,500  Descending FlightAware UK
07:10AM 52.6580 -4.2720 300° West 403 464 30,000  Climbing FlightAware
07:10AM 52.6665 -4.3328 300° West 474 545 28,500 -2,580 Descending FlightAware UK
07:10AM 52.6832 -4.3807 300° West 474 545 28,500 3,180 Level FlightAware UK
07:10AM 52.6980 -4.3870 300° West 402 463 30,000  Climbing FlightAware
07:11AM 52.7110 -4.4605 300° West 472 543 28,500 -2,400 Descending FlightAware UK
07:11AM 52.7276 -4.5085 300° West 474 545 28,500 4,500 Level FlightAware UK
07:11AM 52.7350 -4.4940 300° West 402 463 30,000  Climbing FlightAware
07:11AM 52.7443 -4.5565 300° West 474 545 28,500 -2,700 Descending FlightAware UK
07:12AM 52.7609 -4.6045 300° West 472 543 28,500 3,060 Level FlightAware UK
07:12AM 52.7760 -4.6110 300° West 403 464 30,000  Climbing FlightAware
07:12AM 52.7886 -4.6846 300° West 472 543 28,500 -2,460 Descending FlightAware UK
07:12AM 52.8053 -4.7328 300° West 474 545 28,500 4,260 Level FlightAware UK
07:12AM 52.8120 -4.7190 300° West 402 463 30,000  Climbing FlightAware
07:13AM 52.8218 -4.7811 300° West 474 545 28,500 -2,760 Descending FlightAware UK
07:13AM 52.8384 -4.8294 300° West 472 543 28,500 4,500 Level FlightAware UK
07:13AM 52.8440 -4.8110 300° West 403 464 30,000  Climbing FlightAware
07:13AM 52.8548 -4.8772 300° West 474 545 28,500 -2,700 Descending FlightAware UK
07:14AM 52.8714 -4.9256 300° West 474 545 28,500 2,640 Level FlightAware UK
07:14AM 52.8900 -4.9460 300° West 403 464 30,000  Climbing FlightAware
07:14AM 52.9044 -5.0226 300° West 472 543 28,500 -2,400 Descending FlightAware UK
07:15AM 52.9209 -5.0712 299° West 472 543 28,500 4,500 Level FlightAware UK
07:15AM 52.9250 -5.0520 299° West 404 465 30,000  Climbing FlightAware
07:15AM 52.9373 -5.1198 299° West 472 543 28,500 -2,700 Descending FlightAware UK
07:15AM 52.9536 -5.1686 299° West 472 543 28,500 3,060 Level FlightAware UK
07:15AM 52.9660 -5.1750 299° West 405 466 30,000  Climbing FlightAware
07:16AM 52.9808 -5.2502 299° West 474 545 28,500 -2,460 Descending FlightAware UK
07:16AM 52.9972 -5.2992 299° West 474 545 28,500 4,260 Level FlightAware UK
07:16AM 53.0040 -5.2880 299° West 406 467 30,000 -300 Climbing FlightAware
07:16AM 53.0192 -5.3647 299° West 476 548 28,400  Descending FlightAware UK
07:17AM 53.0430 -5.4070 299° West 406 467 30,000  Climbing FlightAware
07:17AM 53.0573 -5.4798 299° West 474 545 28,400  Descending FlightAware UK
07:17AM 53.0790 -5.5180 299° West 406 467 30,000 1,500 Climbing FlightAware
07:18AM 53.1140 -5.6240 299° West 405 466 30,000  Level FlightAware
07:19AM 53.1510 -5.7380 298° West 405 466 30,000 -1,560 Level FlightAware
07:19AM 53.1662 -5.8081 298° West 472 543 28,500 -2,520 Descending FlightAware UK
07:19AM 53.1825 -5.8573 299° West 472 543 28,500 3,300 Level FlightAware UK
07:19AM 53.1910 -5.8620 299° West 406 467 30,000  Climbing FlightAware
07:20AM 53.2041 -5.9232 299° West 474 545 28,500 -2,760 Descending FlightAware UK
07:20AM 53.2203 -5.9727 299° West 476 548 28,500 3,600 Level FlightAware UK
07:20AM 53.2280 -5.9760 299° West 407 468 30,000  Climbing FlightAware
07:20AM 53.2420 -6.0388 299° West 472 543 28,500 -2,580 Descending FlightAware UK
07:21AM 53.2580 -6.0879 299° West 472 543 28,500 3,180 Level FlightAware UK
07:21AM 53.2690 -6.1010 299° West 408 470 30,000  Climbing FlightAware
07:21AM 53.2850 -6.1710 299° West 474 545 28,500 -2,400 Descending FlightAware UK
07:22AM 53.3012 -6.2209 299° West 474 545 28,500 4,500 Level FlightAware UK
07:22AM 53.3040 -6.2120 299° West 408 470 30,000  Climbing FlightAware
07:22AM 53.3174 -6.2710 299° West 476 548 28,500 -2,700 Descending FlightAware UK
07:22AM 53.3336 -6.3212 298° West 476 548 28,500 3,060 Level FlightAware UK
07:22AM 53.3450 -6.3380 298° West 409 471 30,000  Climbing FlightAware
07:23AM 53.3607 -6.4048 298° West 476 548 28,500 -2,460 Descending FlightAware UK
07:23AM 53.3768 -6.4552 298° West 474 545 28,500 4,260 Level FlightAware UK
07:23AM 53.3800 -6.4480 298° West 409 471 30,000  Climbing FlightAware
07:23AM 53.3930 -6.5055 298° West 474 545 28,500 -2,760 Descending FlightAware UK
07:24AM 53.4091 -6.5559 298° West 474 545 28,500 3,600 Level FlightAware UK
07:24AM 53.4150 -6.5600 298° West 410 472 30,000  Climbing FlightAware
07:24AM 53.4305 -6.6231 298° West 472 543 28,500 -2,580 Descending FlightAware UK
07:24AM 53.4466 -6.6736 298° West 472 543 28,500 3,180 Level FlightAware UK
07:24AM 53.4530 -6.6820 298° West 410 472 30,000  Climbing FlightAware
07:25AM 53.4733 -6.7576 298° West 474 545 28,500 -2,400 Descending FlightAware UK
07:25AM 53.4893 -6.8082 298° West 474 545 28,500 4,500 Level FlightAware UK
07:25AM 53.4890 -6.7970 298° West 411 473 30,000  Climbing FlightAware
07:25AM 53.5054 -6.8589 298° West 474 545 28,500 -2,700 Descending FlightAware UK
07:26AM 53.5215 -6.9097 298° West 474 545 28,500 3,060 Level FlightAware UK
07:26AM 53.5300 -6.9270 298° West 412 474 30,000  Climbing FlightAware
07:26AM 53.5482 -6.9947 298° West 474 545 28,500 -2,460 Descending FlightAware UK
07:26AM 53.5641 -7.0458 298° West 474 545 28,500 4,260 Level FlightAware UK
07:26AM 53.5640 -7.0380 298° West 413 475 30,000  Climbing FlightAware
07:27AM 53.5802 -7.0971 298° West 474 545 28,500 -2,760 Descending FlightAware UK
07:27AM 53.5962 -7.1484 298° West 474 545 28,500 3,000 Level FlightAware UK
07:27AM 53.6040 -7.1670 298° West 414 476 30,000  Climbing FlightAware
07:28AM 53.6228 -7.2338 298° West 476 548 28,500 -2,520 Descending FlightAware UK
07:28AM 53.6388 -7.2851 298° West 476 548 28,500 4,080 Level FlightAware UK
07:28AM 53.6380 -7.2790 298° West 414 476 30,000  Climbing FlightAware
07:28AM 53.6599 -7.3531 298° West 474 545 28,500 -2,400 Descending FlightAware UK
07:29AM 53.6758 -7.4046 298° West 474 545 28,500 4,500 Level FlightAware UK
07:29AM 53.6730 -7.3940 298° West 414 476 30,000  Climbing FlightAware
07:29AM 53.6917 -7.4562 298° West 474 545 28,500 -2,700 Descending FlightAware UK
07:29AM 53.7075 -7.5078 297° West 476 548 28,500 3,060 Level FlightAware UK
07:29AM 53.7140 -7.5280 297° West 414 476 30,000  Climbing FlightAware
07:30AM 53.7339 -7.5939 297° West 476 548 28,500 -2,460 Descending FlightAware UK
07:30AM 53.7497 -7.6454 297° West 474 545 28,500 4,260 Level FlightAware UK
07:30AM 53.7470 -7.6390 297° West 414 476 30,000  Climbing FlightAware
07:30AM 53.7655 -7.6972 297° West 476 548 28,500 -2,760 Descending FlightAware UK
07:31AM 53.7812 -7.7488 297° West 476 548 28,500 3,600 Level FlightAware UK
07:31AM 53.7810 -7.7520 297° West 415 478 30,000  Climbing FlightAware
07:31AM 53.8022 -7.8178 297° West 474 545 28,500 -2,580 Descending FlightAware UK
07:31AM 53.8180 -7.8697 297° West 476 548 28,500 3,180 Level FlightAware UK
07:31AM 53.8210 -7.8840 297° West 416 479 30,000  Climbing FlightAware
07:32AM 53.8442 -7.9564 297° West 476 548 28,500 -2,400 Descending FlightAware UK
07:32AM 53.8599 -8.0087 297° West 476 548 28,500 4,500 Level FlightAware UK
07:32AM 53.8540 -7.9970 297° West 417 480 30,000  Climbing FlightAware
07:32AM 53.8756 -8.0610 297° West 476 548 28,500 -2,280 Descending FlightAware UK
07:33AM 53.8965 -8.1307 297° West 476 548 28,500 3,060 Level FlightAware UK
07:33AM 53.8950 -8.1340 297° West 415 478 30,000  Climbing FlightAware
07:33AM 53.9174 -8.2004 297° West 472 543 28,500  Descending FlightAware UK
07:33AM 53.9260 -8.2380 297° West 415 478 30,000  Climbing FlightAware
07:33AM 53.9330 -8.2527 297° West 472 543 28,500 -4,500 Descending FlightAware UK
07:34AM 53.9486 -8.3050 297° West 472 543 28,500  Level FlightAware UK
07:34AM 53.9641 -8.3572 297° West 470 541 28,500  Level FlightAware UK
07:34AM 53.9796 -8.4094 297° West 470 541 28,500 2,760 Level FlightAware UK
07:35AM 53.9800 -8.4250 297° West 413 475 30,000  Climbing FlightAware
07:35AM 53.9951 -8.4618 297° West 470 541 28,500 -5,640 Descending FlightAware UK
07:35AM 54.0054 -8.4968 297° West 470 541 28,500  Level FlightAware UK
07:35AM 54.0207 -8.5488 297° West 468 539 28,500 2,640 Level FlightAware UK
07:35AM 54.0270 -8.5860 297° West 414 476 30,000  Climbing FlightAware
07:36AM 54.0515 -8.6541 297° West 470 541 28,500 -2,400 Descending FlightAware UK
07:36AM 54.0670 -8.7069 297° West 472 543 28,500 4,500 Level FlightAware UK
07:36AM 54.0590 -8.6950 297° West 416 479 30,000  Climbing FlightAware
07:36AM 54.0825 -8.7600 297° West 472 543 28,500 -2,700 Descending FlightAware UK
07:37AM 54.0979 -8.8131 296° West 472 543 28,500 3,720 Level FlightAware UK
07:37AM 54.0930 -8.8130 296° West 417 480 30,000  Climbing FlightAware
07:37AM 54.1187 -8.8841 296° West 474 545 28,500 -2,520 Descending FlightAware UK
07:37AM 54.1342 -8.9376 296° West 476 548 28,500 3,300 Level FlightAware UK
07:37AM 54.1300 -8.9430 296° West 418 481 30,000  Climbing FlightAware
07:38AM 54.1548 -9.0089 296° West 474 545 28,500  Descending FlightAware UK
07:38AM 54.1650 -9.0650 296° West 419 482 30,000 1,260 Climbing FlightAware
07:39AM 54.2040 -9.2010 296° West 419 482 30,000  Level FlightAware
07:40AM 54.2390 -9.3220 296° West 419 482 30,000  Level FlightAware
07:40AM 54.2720 -9.4410 295° West 420 483 30,000  Level FlightAware
07:41AM 54.3110 -9.5770 296° West 421 484 30,000  Level FlightAware
07:42AM 54.3440 -9.6950 296° West 422 486 30,000  Level FlightAware
07:42AM 54.3820 -9.8340 295° West 426 490 30,000  Level FlightAware
07:43AM 54.4210 -9.9740 296° West 426 490 30,000  Level FlightAware
07:44AM 54.4730 -10.1500 297° West 431 496 30,000  Level FlightAware
07:45AM 54.5180 -10.2830 300° West 428 493 30,000  Level FlightAware
07:46AM 54.5650 -10.4200 301° West 429 494 30,000  Level FlightAware
07:46AM 54.6070 -10.5400 301° West 431 496 30,000  Level FlightAware
07:47AM 54.6480 -10.6610 300° West 432 497 30,000  Level FlightAware
07:48AM 54.6930 -10.7940 300° West 432 497 30,000  Level FlightAware
07:48AM 54.7340 -10.9130 301° West 433 498 30,000  Level FlightAware
07:49AM 54.7800 -11.0500 300° West 435 501 30,000  Level FlightAware
07:50AM 54.8200 -11.1710 300° West 435 501 30,000  Level FlightAware
07:50AM 54.8610 -11.2920 301° West 436 502 30,000  Level FlightAware
07:51AM 54.9070 -11.4320 300° West 438 504 30,000  Level FlightAware
07:52AM 54.9470 -11.5520 300° West 439 505 30,000  Level FlightAware
07:53AM 54.9940 -11.6930 300° West 440 506 30,000  Level FlightAware
07:53AM 55.0340 -11.8160 300° West 441 507 30,000  Level FlightAware
07:54AM 55.0750 -11.9420 300° West 442 509 30,000  Level FlightAware
07:55AM 55.1210 -12.0830 300° West 443 510 30,000  Level FlightAware
07:55AM 55.1550 -12.1880 300° West 443 510 30,000  Level FlightAware
07:56AM 55.2010 -12.3310 299° West 445 512 30,000  Level FlightAware
07:57AM 55.2460 -12.4710 299° West 446 513 30,000  Level FlightAware
07:57AM 55.2870 -12.6000 299° West 448 516 30,000  Level FlightAware
07:58AM 55.3330 -12.7440 299° West 449 517 30,000  Level FlightAware
07:59AM 55.3660 -12.8510 299° West 450 518 30,000  Level FlightAware
08:00AM 55.4070 -12.9850 298° West 450 518 30,000  Level FlightAware
08:00AM 55.4400 -13.0960 298° West 450 518 30,000  Level FlightAware
08:01AM 55.4730 -13.2060 298° West 450 518 30,000  Level FlightAware
08:02AM 55.5150 -13.3440 298° West 450 518 30,000  Level FlightAware
08:02AM 55.5480 -13.4540 298° West 450 518 30,000  Level FlightAware
08:03AM 55.5810 -13.5650 298° West 450 518 30,000  Level FlightAware
08:04AM 55.6150 -13.6750 299° West 450 518 30,000  Level FlightAware
08:04AM 55.6480 -13.7860 298° West 450 518 30,000  Level FlightAware
08:05AM 55.6890 -13.9250 298° West 450 518 30,000  Level FlightAware
08:06AM 55.7230 -14.0360 299° West 450 518 30,000  Level FlightAware
08:07AM 55.7560 -14.1470 298° West 450 518 30,000  Level FlightAware
08:07AM 55.7890 -14.2580 298° West 450 518 30,000  Level FlightAware
08:08AM 55.8220 -14.3690 298° West 450 518 30,000  Level FlightAware
08:09AM 55.8640 -14.5080 298° West 450 518 30,000 60 Level FlightAware
08:11AM 55.8810 -14.8683 275° West  Level Estimated
08:12AM 55.9289 -15.0673 293° West  Level FlightAware Approximate
08:13AM 55.9765 -15.2668 293° West  Level FlightAware Approximate
08:14AM 56.0238 -15.4668 293° West  Level FlightAware Approximate
08:15AM 56.0707 -15.6673 293° West  Level FlightAware Approximate
08:16AM 56.1173 -15.8682 293° West  Level FlightAware Approximate
08:17AM 56.1636 -16.0697 292° West  Level FlightAware Approximate
08:18AM 56.2095 -16.2716 292° West  Level FlightAware Approximate
08:19AM 56.2552 -16.4741 292° West  Level FlightAware Approximate
08:20AM 56.3008 -16.6767 292° West  Level FlightAware Approximate
08:21AM 56.3468 -16.8794 292° West  Level FlightAware Approximate
08:22AM 56.3924 -17.0825 292° West  Level FlightAware Approximate
08:23AM 56.4377 -17.2862 292° West  Level FlightAware Approximate
08:24AM 56.4827 -17.4903 292° West  Level FlightAware Approximate
08:25AM 56.5273 -17.6949 292° West  Level FlightAware Approximate
08:26AM 56.5715 -17.9000 291° West  Level FlightAware Approximate
08:27AM 56.6155 -18.1056 291° West  Level FlightAware Approximate
08:28AM 56.6591 -18.3116 291° West  Level FlightAware Approximate
08:29AM 56.7024 -18.5181 291° West  Level FlightAware Approximate
08:30AM 56.7453 -18.7251 291° West  Level FlightAware Approximate
08:31AM 56.7878 -18.9326 291° West  Level FlightAware Approximate
08:32AM 56.8301 -19.1405 290° West  Level FlightAware Approximate
08:32AM 57.0000 -20.0000 285° West 479 551 32,000  Level ETMS Enhanced Traffic Management System
08:33AM 56.8720 -19.3489 290° West  Level FlightAware Approximate
08:34AM 56.9135 -19.5578 290° West  Level FlightAware Approximate
08:35AM 56.9547 -19.7671 290° West  Level FlightAware Approximate
08:36AM 56.9955 -19.9769 290° West  Level FlightAware Approximate
08:37AM 57.0264 -20.1925 284° West  Level FlightAware Approximate
08:38AM 57.1952 -21.4264 284° West 479 551 32,000  Level FlightAware Transoceanic
08:39AM 57.2261 -21.6656 283° West 479 551 32,000  Level FlightAware Transoceanic
08:40AM 57.2566 -21.9051 283° West 479 551 32,000  Level FlightAware Transoceanic
08:41AM 57.2867 -22.1451 283° West 479 551 32,000  Level FlightAware Transoceanic
08:42AM 57.3162 -22.3854 283° West 479 551 32,000  Level FlightAware Transoceanic
08:43AM 57.3454 -22.6262 283° West 479 551 32,000  Level FlightAware Transoceanic
08:44AM 57.3740 -22.8673 282° West 479 551 32,000  Level FlightAware Transoceanic
08:45AM 57.4022 -23.1088 282° West 479 551 32,000  Level FlightAware Transoceanic
08:46AM 57.4300 -23.3506 282° West 479 551 32,000  Level FlightAware Transoceanic
08:47AM 57.4572 -23.5928 282° West 479 551 32,000  Level FlightAware Transoceanic
08:48AM 57.4840 -23.8354 282° West 479 551 32,000  Level FlightAware Transoceanic
08:49AM 57.5104 -24.0784 281° West 479 551 32,000  Level FlightAware Transoceanic
08:50AM 57.5363 -24.3216 281° West 479 551 32,000  Level FlightAware Transoceanic
08:51AM 57.5617 -24.5653 281° West 479 551 32,000  Level FlightAware Transoceanic
08:52AM 57.5866 -24.8092 281° West 479 551 32,000  Level FlightAware Transoceanic
08:53AM 57.6111 -25.0535 280° West 479 551 32,000  Level FlightAware Transoceanic
08:54AM 57.6351 -25.2981 280° West 479 551 32,000  Level FlightAware Transoceanic
08:55AM 57.6586 -25.5431 280° West 479 551 32,000  Level FlightAware Transoceanic
08:56AM 57.6816 -25.7883 280° West 479 551 32,000  Level FlightAware Transoceanic
08:57AM 57.7042 -26.0339 280° West 479 551 32,000  Level FlightAware Transoceanic
08:58AM 57.7263 -26.2798 279° West 479 551 32,000  Level FlightAware Transoceanic
08:59AM 57.7479 -26.5259 279° West 479 551 32,000  Level FlightAware Transoceanic
09:00AM 57.7691 -26.7724 279° West 479 551 32,000  Level FlightAware Transoceanic
09:01AM 57.7897 -27.0191 279° West 479 551 32,000  Level FlightAware Transoceanic
09:02AM 57.8099 -27.2661 279° West 479 551 32,000  Level FlightAware Transoceanic
09:03AM 57.8296 -27.5134 278° West 479 551 32,000  Level FlightAware Transoceanic
09:04AM 57.8488 -27.7610 278° West 479 551 32,000  Level FlightAware Transoceanic
09:05AM 57.8676 -28.0088 278° West 479 551 32,000  Level FlightAware Transoceanic
09:06AM 57.8858 -28.2569 278° West 479 551 32,000  Level FlightAware Transoceanic
09:07AM 57.9036 -28.5052 278° West 479 551 32,000  Level FlightAware Transoceanic
09:08AM 57.9209 -28.7538 277° West 479 551 32,000  Level FlightAware Transoceanic
09:09AM 57.9377 -29.0026 277° West 479 551 32,000  Level FlightAware Transoceanic
09:10AM 57.9540 -29.2516 277° West 479 551 32,000  Level FlightAware Transoceanic
09:11AM 57.9698 -29.5009 277° West 479 551 32,000  Level FlightAware Transoceanic
09:12AM 57.9851 -29.7503 277° West 479 551 32,000  Level FlightAware Transoceanic
09:13AM 57.9987 -29.9779 277° West  Level FlightAware Approximate
09:14AM 58.0118 -30.2057 276° West  Level FlightAware Approximate
09:15AM 58.0071 -30.1843 274° West  Level FlightAware Approximate
09:16AM 58.0156 -30.4129 274° West  Level FlightAware Approximate
09:17AM 58.0236 -30.6416 274° West  Level FlightAware Approximate
09:18AM 58.0312 -30.8705 274° West  Level FlightAware Approximate
09:19AM 58.0384 -31.0994 274° West  Level FlightAware Approximate
09:20AM 58.0453 -31.3284 273° West  Level FlightAware Approximate
09:21AM 58.0517 -31.5576 273° West  Level FlightAware Approximate
09:22AM 58.0576 -31.7867 273° West  Level FlightAware Approximate
09:23AM 58.0632 -32.0160 273° West  Level FlightAware Approximate
09:24AM 58.0684 -32.2453 273° West  Level FlightAware Approximate
09:25AM 58.0731 -32.4747 272° West  Level FlightAware Approximate
09:26AM 58.0774 -32.7042 272° West  Level FlightAware Approximate
09:27AM 58.0814 -32.9337 272° West  Level FlightAware Approximate
09:28AM 58.0849 -33.1632 272° West  Level FlightAware Approximate
09:29AM 58.0880 -33.3928 272° West  Level FlightAware Approximate
09:30AM 58.0907 -33.6224 271° West  Level FlightAware Approximate
09:31AM 58.0929 -33.8521 271° West  Level FlightAware Approximate
09:32AM 58.0948 -34.0818 271° West  Level FlightAware Approximate
09:33AM 58.0962 -34.3115 271° West  Level FlightAware Approximate
09:34AM 58.0973 -34.5412 271° West  Level FlightAware Approximate
09:35AM 58.0979 -34.7710 270° West  Level FlightAware Approximate
09:36AM 58.0981 -35.0007 270° West  Level FlightAware Approximate
09:37AM 58.0979 -35.2304 270° West  Level FlightAware Approximate
09:38AM 58.0973 -35.4602 270° West  Level FlightAware Approximate
09:39AM 58.0962 -35.6899 270° West  Level FlightAware Approximate
09:40AM 58.0948 -35.9196 269° West  Level FlightAware Approximate
09:41AM 58.0929 -36.1493 269° West  Level FlightAware Approximate
09:42AM 58.0906 -36.3790 269° West  Level FlightAware Approximate
09:43AM 58.0880 -36.6086 269° West  Level FlightAware Approximate
09:44AM 58.0849 -36.8382 269° West  Level FlightAware Approximate
09:45AM 58.0813 -37.0677 268° West  Level FlightAware Approximate
09:46AM 58.0774 -37.2972 268° West  Level FlightAware Approximate
09:47AM 58.0731 -37.5267 268° West  Level FlightAware Approximate
09:48AM 58.0683 -37.7561 268° West  Level FlightAware Approximate
09:49AM 58.0632 -37.9854 268° West  Level FlightAware Approximate
09:50AM 58.0576 -38.2147 267° West  Level FlightAware Approximate
09:51AM 58.0516 -38.4439 267° West  Level FlightAware Approximate
09:52AM 58.0452 -38.6730 267° West  Level FlightAware Approximate
09:53AM 58.0384 -38.9020 267° West  Level FlightAware Approximate
09:54AM 58.0312 -39.1309 267° West  Level FlightAware Approximate
09:55AM 58.0235 -39.3598 266° West  Level FlightAware Approximate
09:56AM 58.0155 -39.5885 266° West  Level FlightAware Approximate
09:57AM 58.0071 -39.8171 266° West  Level FlightAware Approximate
09:58AM 58.0018 -40.0457 274° West  Level FlightAware Approximate
09:59AM 58.0105 -40.2742 274° West  Level FlightAware Approximate
10:00AM 58.0188 -40.5029 274° West  Level FlightAware Approximate
10:01AM 58.0267 -40.7317 274° West  Level FlightAware Approximate
10:02AM 58.0341 -40.9605 274° West  Level FlightAware Approximate
10:03AM 58.0412 -41.1895 273° West  Level FlightAware Approximate
10:04AM 58.0478 -41.4186 273° West  Level FlightAware Approximate
10:05AM 58.0541 -41.6477 273° West  Level FlightAware Approximate
10:06AM 58.0599 -41.8769 273° West  Level FlightAware Approximate
10:07AM 58.0653 -42.1062 273° West  Level FlightAware Approximate
10:08AM 58.0703 -42.3356 272° West  Level FlightAware Approximate
10:09AM 58.0749 -42.5650 272° West  Level FlightAware Approximate
10:10AM 58.0790 -42.7945 272° West  Level FlightAware Approximate
10:11AM 58.0828 -43.0240 272° West  Level FlightAware Approximate
10:12AM 58.0862 -43.2536 272° West  Level FlightAware Approximate
10:13AM 58.0891 -43.4832 271° West  Level FlightAware Approximate
10:14AM 58.0916 -43.7128 271° West  Level FlightAware Approximate
10:15AM 58.0937 -43.9425 271° West  Level FlightAware Approximate
10:16AM 58.0954 -44.1722 271° West  Level FlightAware Approximate
10:17AM 58.0967 -44.4019 271° West  Level FlightAware Approximate
10:18AM 58.0976 -44.6316 271° West  Level FlightAware Approximate
10:19AM 58.0980 -44.8614 270° West  Level FlightAware Approximate
10:20AM 58.0981 -45.0911 270° West  Level FlightAware Approximate
10:21AM 58.0977 -45.3208 270° West  Level FlightAware Approximate
10:22AM 58.0969 -45.5506 270° West  Level FlightAware Approximate
10:23AM 58.0957 -45.7803 270° West  Level FlightAware Approximate
10:24AM 58.0941 -46.0100 269° West  Level FlightAware Approximate
10:25AM 58.0921 -46.2397 269° West  Level FlightAware Approximate
10:26AM 58.0896 -46.4693 269° West  Level FlightAware Approximate
10:27AM 58.0868 -46.6989 269° West  Level FlightAware Approximate
10:28AM 58.0835 -46.9285 269° West  Level FlightAware Approximate
10:29AM 58.0798 -47.1581 268° West  Level FlightAware Approximate
10:30AM 58.0758 -47.3875 268° West  Level FlightAware Approximate
10:31AM 58.0713 -47.6170 268° West  Level FlightAware Approximate
10:32AM 58.0663 -47.8463 268° West  Level FlightAware Approximate
10:33AM 58.0610 -48.0756 268° West  Level FlightAware Approximate
10:34AM 58.0553 -48.3049 267° West  Level FlightAware Approximate
10:35AM 58.0491 -48.5340 267° West  Level FlightAware Approximate
10:36AM 58.0426 -48.7631 267° West  Level FlightAware Approximate
10:37AM 58.0356 -48.9921 267° West  Level FlightAware Approximate
10:38AM 58.0282 -49.2210 267° West  Level FlightAware Approximate
10:39AM 58.0204 -49.4498 266° West  Level FlightAware Approximate
10:40AM 58.0122 -49.6785 266° West  Level FlightAware Approximate
10:41AM 58.0036 -49.9070 266° West  Level FlightAware Approximate
10:42AM 57.9742 -50.1269 249° West  Level FlightAware Approximate
10:43AM 57.9304 -50.3402 249° West  Level FlightAware Approximate
10:44AM 57.8862 -50.5531 249° West  Level FlightAware Approximate
10:45AM 57.8416 -50.7654 249° West  Level FlightAware Approximate
10:46AM 57.7968 -50.9773 248° West  Level FlightAware Approximate
10:47AM 57.7515 -51.1886 248° West  Level FlightAware Approximate
10:48AM 57.7063 -51.3996 249° West  Level FlightAware Approximate
10:49AM 57.6621 -51.6111 249° West  Level FlightAware Approximate
10:50AM 57.6175 -51.8220 249° West  Level FlightAware Approximate
10:51AM 57.5725 -52.0325 248° West  Level FlightAware Approximate
10:52AM 57.5272 -52.2424 248° West  Level FlightAware Approximate
10:53AM 57.4815 -52.4518 248° West  Level FlightAware Approximate
10:54AM 57.4355 -52.6607 248° West  Level FlightAware Approximate
10:55AM 57.3891 -52.8690 248° West  Level FlightAware Approximate
10:56AM 57.3424 -53.0769 247° West  Level FlightAware Approximate
10:57AM 57.2954 -53.2842 247° West  Level FlightAware Approximate
10:58AM 57.2480 -53.4909 247° West  Level FlightAware Approximate
10:59AM 57.2003 -53.6972 247° West  Level FlightAware Approximate
11:00AM 57.1523 -53.9029 247° West  Level FlightAware Approximate
11:01AM 57.1041 -54.1082 247° West  Level FlightAware Approximate
11:01AM 56.9333 -55.3833 252° West 250 288 33,000  Level Gander Center
11:02AM 57.0559 -54.3132 247° West  Level FlightAware Approximate
11:02AM 56.9000 -55.6000 254° West 490 564 33,000  Level Gander Center
11:03AM 57.0073 -54.5177 246° West  Level FlightAware Approximate
11:03AM 56.8333 -55.8500 244° Southwest 500 575 33,000  Level Gander Center
11:04AM 56.9583 -54.7216 246° West  Level FlightAware Approximate
11:04AM 56.7833 -56.0667 247° West 480 552 33,000  Level Gander Center
11:05AM 56.9091 -54.9250 246° West  Level FlightAware Approximate
11:05AM 56.7167 -56.3167 244° Southwest 480 552 33,000  Level Gander Center
11:06AM 56.8725 -55.1360 252° West  Level FlightAware Approximate
11:06AM 56.6833 -56.5333 254° West 500 575 33,000  Level Gander Center
11:07AM 56.8356 -55.3466 252° West  Level FlightAware Approximate
11:07AM 56.6167 -56.7833 244° Southwest 500 575 33,000  Level Gander Center
11:08AM 56.5667 -57.0167 249° West 500 575 33,000  Level Gander Center
11:09AM 56.5000 -57.2500 243° Southwest 500 575 33,000  Level Gander Center
11:10AM 56.4667 -57.4667 255° West 490 564 33,000  Level Gander Center
11:11AM 56.4000 -57.7167 244° Southwest 490 564 33,000  Level Gander Center
11:12AM 56.3500 -57.9333 247° West 490 564 33,000  Level Gander Center
11:13AM 56.2833 -58.1500 241° Southwest 500 575 33,000  Level Gander Center
11:14AM 56.2000 -58.3667 235° Southwest 490 564 33,000  Level Gander Center
11:15AM 56.1167 -58.5500 231° Southwest 490 564 33,000  Level Gander Center
11:16AM 56.0500 -58.7667 241° Southwest 490 564 33,000  Level Gander Center
11:17AM 55.9667 -58.9500 231° Southwest 490 564 33,000  Level Gander Center
11:18AM 55.8833 -59.1333 231° Southwest 480 552 33,000  Level Gander Center
11:19AM 55.8000 -59.3500 236° Southwest 480 552 33,100 420 Climbing Gander Center
11:21AM 55.7000 -59.5667 231° Southwest 480 552 34,000 360 Climbing Gander Center
11:22AM 55.6333 -59.7667 239° Southwest 470 541 34,000  Level Gander Center
11:23AM 55.5667 -59.9500 237° Southwest 470 541 34,000  Level Gander Center
11:24AM 55.4833 -60.1333 231° Southwest 470 541 34,000  Level Gander Center
11:25AM 55.4167 -60.3167 237° Southwest 460 529 34,000  Level Gander Center
11:25AM 55.3500 -60.4667 232° Southwest 460 529 34,000  Level Gander Center
11:27AM 55.2667 -60.7000 238° Southwest 460 529 34,000  Level Gander Center
11:27AM 55.2000 -60.8500 232° Southwest 460 529 34,000  Level Gander Center
11:28AM 55.1333 -61.0167 235° Southwest 460 529 34,000  Level Gander Center
11:29AM 55.0667 -61.2000 238° Southwest 450 518 34,000  Level Gander Center
11:30AM 54.9833 -61.3667 229° Southwest 450 518 34,000  Level Gander Center
11:31AM 54.9167 -61.5667 240° Southwest 450 518 34,000  Level Gander Center
11:32AM 54.8500 -61.7167 232° Southwest 450 518 34,000  Level Gander Center
11:33AM 54.7833 -61.8833 235° Southwest 450 518 34,000  Level Gander Center
11:34AM 54.7000 -62.0833 234° Southwest 450 518 34,000  Level Gander Center
11:35AM 54.6333 -62.2667 238° Southwest 440 506 34,000  Level Gander Center
11:36AM 54.5667 -62.4333 235° Southwest 440 506 34,000  Level Gander Center
11:37AM 54.5000 -62.6000 235° Southwest 440 506 34,000  Level Gander Center
11:38AM 54.4000 -62.7833 227° Southwest 440 506 34,000  Level Gander Center
11:39AM 54.3333 -62.9500 236° Southwest 440 506 34,000  Level Gander Center
11:40AM 54.2667 -63.1167 236° Southwest 440 506 34,000  Level Gander Center
11:41AM 54.2000 -63.2833 236° Southwest 440 506 34,000  Level Gander Center
11:42AM 54.1333 -63.4500 236° Southwest 430 495 34,000  Level Gander Center
11:43AM 54.0667 -63.6167 236° Southwest 430 495 34,000  Level Gander Center
11:44AM 53.9833 -63.7500 223° Southwest 430 495 34,000  Level Gander Center
11:45AM 53.9167 -63.9500 241° Southwest 430 495 34,000  Level Gander Center
11:46AM 53.8500 -64.0833 230° Southwest 420 483 34,000  Level Gander Center
11:47AM 53.7833 -64.2500 236° Southwest 420 483 34,000  Level Gander Center
11:48AM 53.7000 -64.4167 230° Southwest 420 483 34,000  Level Gander Center
11:49AM 53.6333 -64.5833 236° Southwest 420 483 34,000  Level Gander Center
11:50AM 53.5667 -64.7500 236° Southwest 430 495 34,000  Level Gander Center
11:51AM 53.5000 -64.8833 230° Southwest 430 495 34,000  Level Gander Center
11:52AM 53.4167 -65.0500 230° Southwest 420 483 34,000  Level Gander Center
11:53AM 53.3500 -65.1833 230° Southwest 430 495 34,000  Level Montreal Center
11:54AM 53.2833 -65.3167 230° Southwest 430 495 34,000  Level Montreal Center
11:55AM 53.2000 -65.4833 230° Southwest 430 495 34,000  Level Montreal Center
11:56AM 53.1333 -65.6667 239° Southwest 440 506 34,000  Level Montreal Center
11:57AM 53.0500 -65.8000 224° Southwest 430 495 34,000  Level Montreal Center
11:58AM 52.9667 -65.9833 233° Southwest 440 506 34,000  Level Montreal Center
11:59AM 52.9000 -66.1500 236° Southwest 440 506 34,000  Level Montreal Center
12:00PM 52.8167 -66.2667 220° Southwest 440 506 34,000  Level Montreal Center
12:01PM 52.7500 -66.4667 241° Southwest 440 506 34,000  Level Montreal Center
12:02PM 52.6833 -66.6167 234° Southwest 440 506 34,000  Level Montreal Center
12:03PM 52.6000 -66.7667 228° Southwest 440 506 34,000  Level Montreal Center
12:04PM 52.5167 -66.9333 231° Southwest 440 506 34,000  Level Montreal Center
12:05PM 52.4333 -67.0833 228° Southwest 450 518 34,000  Level Montreal Center
12:06PM 52.3500 -67.2333 228° Southwest 450 518 34,000  Level Montreal Center
12:07PM 52.2833 -67.4167 239° Southwest 450 518 34,000  Level Montreal Center
12:08PM 52.2000 -67.5667 228° Southwest 450 518 34,000  Level Montreal Center
12:09PM 52.1167 -67.7333 231° Southwest 440 506 34,000  Level Montreal Center
12:10PM 52.0500 -67.8833 234° Southwest 450 518 34,000  Level Montreal Center
12:11PM 51.9500 -68.0333 223° Southwest 450 518 34,000  Level Montreal Center
12:12PM 51.8833 -68.2167 240° Southwest 450 518 34,000  Level Montreal Center
12:13PM 51.8000 -68.3667 228° Southwest 450 518 34,000  Level Montreal Center
12:14PM 51.7167 -68.5167 228° Southwest 450 518 34,000  Level Montreal Center
12:15PM 51.6500 -68.6667 234° Southwest 450 518 34,000  Level Montreal Center
12:16PM 51.5500 -68.8167 223° Southwest 450 518 34,000  Level Montreal Center
12:17PM 51.4833 -68.9833 237° Southwest 450 518 34,000  Level Montreal Center
12:18PM 51.3833 -69.1333 223° Southwest 450 518 34,000  Level Montreal Center
12:19PM 51.3167 -69.2833 235° Southwest 450 518 34,000  Level Montreal Center
12:20PM 51.2333 -69.4333 228° Southwest 450 518 34,000  Level Montreal Center
12:21PM 51.1500 -69.6000 231° Southwest 450 518 34,000  Level Montreal Center
12:22PM 51.0667 -69.7500 229° Southwest 440 506 34,000  Level Montreal Center
12:23PM 50.9833 -69.8833 225° Southwest 440 506 34,000  Level Montreal Center
12:24PM 50.9000 -70.0333 229° Southwest 440 506 34,000  Level Montreal Center
12:25PM 50.8167 -70.1833 229° Southwest 440 506 34,000  Level Montreal Center
12:26PM 50.7500 -70.3167 232° Southwest 440 506 34,000  Level Montreal Center
12:27PM 50.6500 -70.4667 224° Southwest 440 506 34,000  Level Montreal Center
12:28PM 50.5667 -70.6167 229° Southwest 440 506 34,000  Level Montreal Center
12:29PM 50.5000 -70.7833 238° Southwest 440 506 34,000  Level Montreal Center
12:30PM 50.4167 -70.9167 226° Southwest 440 506 34,000  Level Montreal Center
12:37PM 49.9230 -71.7960 226° Southwest 447 514 34,000  Level FlightAware
12:37PM 49.8640 -71.8950 227° Southwest 447 514 34,000  Level FlightAware
12:38PM 49.7900 -72.0190 227° Southwest 449 517 34,000  Level FlightAware
12:39PM 49.7290 -72.1200 227° Southwest 448 516 34,000  Level FlightAware
12:40PM 49.6670 -72.2230 227° Southwest 449 517 34,000  Level FlightAware
12:40PM 49.6110 -72.3160 227° Southwest 449 517 34,000  Level FlightAware
12:41PM 49.5470 -72.4210 227° Southwest 448 516 34,000  Level FlightAware
12:42PM 49.4900 -72.5130 226° Southwest 448 516 34,000  Level FlightAware
12:43PM 49.3510 -72.7380 227° Southwest 448 516 34,000  Level FlightAware
12:44PM 49.2960 -72.8260 226° Southwest 447 514 34,000  Level FlightAware
12:45PM 49.2370 -72.9210 226° Southwest 447 514 34,000  Level FlightAware
12:45PM 49.1840 -72.9900 220° Southwest 446 513 34,000  Level FlightAware
12:46PM 49.1180 -73.0590 214° Southwest 446 513 34,000  Level FlightAware
12:47PM 49.0590 -73.1190 214° Southwest 446 513 34,000  Level FlightAware
12:47PM 49.0010 -73.1790 214° Southwest 446 513 34,000  Level FlightAware
12:48PM 48.9430 -73.2390 214° Southwest 446 513 34,000  Level FlightAware
12:49PM 48.8700 -73.3130 214° Southwest 446 513 34,000  Level FlightAware
12:50PM 48.8120 -73.3730 214° Southwest 446 513 34,000  Level FlightAware
12:50PM 48.7540 -73.4320 214° Southwest 446 513 34,000  Level FlightAware
12:50PM 48.6000 -73.3840 168° South 447 514 34,000  Level FlightAware
12:51PM 48.5080 -73.4350 200° South 447 514 34,000  Level FlightAware
12:52PM 48.4200 -73.4850 201° Southwest 445 512 34,000  Level FlightAware
12:53PM 48.3370 -73.5320 201° Southwest 443 510 34,000  Level FlightAware
12:53PM 48.2640 -73.5730 201° Southwest 442 509 34,000  Level FlightAware
12:54PM 48.1820 -73.6190 201° Southwest 441 507 34,000  Level FlightAware
12:55PM 48.0960 -73.6660 200° South 439 505 34,000  Level FlightAware
12:55PM 48.0210 -73.7090 201° Southwest 438 504 34,000  Level FlightAware
12:56PM 47.9450 -73.7500 200° South 437 503 34,000  Level FlightAware
12:57PM 47.8610 -73.7970 201° Southwest 435 501 34,000  Level FlightAware
12:58PM 47.7860 -73.8390 201° Southwest 435 501 34,000  Level FlightAware
12:58PM 47.7010 -73.8860 200° South 435 501 34,000  Level FlightAware
12:59PM 47.6260 -73.9270 200° South 434 499 34,000  Level FlightAware
01:00PM 47.5420 -73.9720 200° South 432 497 34,000  Level FlightAware
01:00PM 47.4670 -74.0130 200° South 430 495 34,000  Level FlightAware
01:01PM 47.3930 -74.0540 201° Southwest 428 493 34,000  Level FlightAware
01:02PM 47.3110 -74.0990 200° South 426 490 34,000  Level FlightAware
01:02PM 47.2360 -74.1390 200° South 426 490 34,000  Level FlightAware
01:03PM 47.1640 -74.1780 200° South 426 490 34,000  Level FlightAware
01:04PM 47.0950 -74.2150 200° South 424 488 34,000  Level FlightAware
01:05PM 47.0070 -74.2620 200° South 425 489 34,000  Level FlightAware
01:05PM 46.9240 -74.3070 200° South 426 490 34,000  Level FlightAware
01:06PM 46.8490 -74.3470 200° South 426 490 34,000  Level FlightAware
01:07PM 46.7760 -74.3860 200° South 427 491 34,000  Level FlightAware
01:07PM 46.6920 -74.4310 200° South 427 491 34,000  Level FlightAware
01:08PM 46.6190 -74.4700 200° South 427 491 34,000  Level FlightAware
01:09PM 46.5350 -74.5140 200° South 426 490 34,000  Level FlightAware
01:09PM 46.4620 -74.5530 200° South 427 491 34,000  Level FlightAware
01:10PM 46.3780 -74.5970 200° South 427 491 34,000  Level FlightAware
01:11PM 46.3040 -74.6360 200° South 428 493 34,000  Level FlightAware
01:12PM 46.2300 -74.6750 200° South 428 493 34,000  Level FlightAware
01:12PM 46.1460 -74.7190 200° South 430 495 34,000  Level FlightAware
01:13PM 46.0720 -74.7570 200° South 430 495 34,000  Level FlightAware
01:14PM 45.9970 -74.7960 200° South 430 495 34,000  Level FlightAware
01:14PM 45.9240 -74.8340 200° South 427 491 34,000  Level FlightAware
01:15PM 45.8400 -74.8770 200° South 424 488 34,000  Level FlightAware
01:16PM 45.7690 -74.9140 200° South 422 486 34,000  Level FlightAware
01:16PM 45.6920 -74.9540 200° South 421 484 34,000  Level FlightAware
01:17PM 45.6100 -74.9960 200° South 416 479 34,000  Level FlightAware
01:18PM 45.5210 -75.0410 200° South 414 476 34,000  Level FlightAware
01:19PM 45.4480 -75.0790 200° South 412 474 34,000  Level FlightAware
01:19PM 45.3790 -75.1140 200° South 410 472 34,000  Level FlightAware
01:20PM 45.2990 -75.1540 199° South 410 472 34,000  Level FlightAware
01:21PM 45.2270 -75.1910 200° South 408 470 34,000  Level FlightAware
01:21PM 45.1470 -75.2310 199° South 408 470 34,000  Level FlightAware
01:22PM 45.0750 -75.2680 200° South 408 470 34,000  Level FlightAware
01:23PM 45.0040 -75.3030 199° South 408 470 34,000  Level FlightAware
01:24PM 44.9250 -75.3430 200° South 410 472 34,000  Level FlightAware
01:24PM 44.8530 -75.3790 200° South 411 473 34,000  Level FlightAware
01:25PM 44.7820 -75.4140 199° South 410 472 34,000  Level FlightAware
01:26PM 44.7010 -75.4550 200° South 409 471 34,000  Level FlightAware
01:26PM 44.6330 -75.4880 199° South 409 471 34,000  Level FlightAware
01:27PM 44.5540 -75.5280 200° South 408 470 34,000  Level FlightAware
01:28PM 44.4800 -75.5640 199° South 407 468 34,000  Level FlightAware
01:28PM 44.4120 -75.5980 200° South 396 456 34,000  Level FlightAware
01:29PM 44.3310 -75.6370 199° South 394 453 34,000  Level FlightAware
01:30PM 44.2640 -75.6710 200° South 391 450 34,000  Level FlightAware
01:31PM 44.1850 -75.7090 199° South 395 455 34,000  Level FlightAware
01:31PM 44.1160 -75.7430 199° South 391 450 34,000  Level FlightAware
01:32PM 44.0480 -75.7760 199° South 388 447 34,000  Level FlightAware
01:33PM 43.9720 -75.8130 199° South 379 436 34,000  Level FlightAware
01:33PM 43.9050 -75.8450 199° South 378 435 34,000  Level FlightAware
01:34PM 43.8360 -75.8780 199° South 378 435 34,000  Level FlightAware
01:35PM 43.7600 -75.9150 199° South 377 434 34,000  Level FlightAware
01:36PM 43.6740 -75.9570 199° South 382 440 34,000  Level FlightAware
01:36PM 43.6090 -75.9870 198° South 381 438 34,000  Level FlightAware
01:37PM 43.5330 -76.0240 199° South 379 436 34,000  Level FlightAware
01:38PM 43.4670 -76.0550 199° South 378 435 34,000  Level FlightAware
01:38PM 43.3920 -76.0910 199° South 377 434 34,000  Level FlightAware
01:39PM 43.3260 -76.1220 199° South 376 433 34,000  Level FlightAware
01:40PM 43.2610 -76.1530 199° South 375 432 34,000  Level FlightAware
01:41PM 43.1910 -76.1860 199° South 375 432 34,000  Level FlightAware
01:41PM 43.1260 -76.2270 205° Southwest 365 420 34,000  Level FlightAware
01:42PM 43.0680 -76.2760 212° Southwest 365 420 34,000  Level FlightAware
01:43PM 43.0030 -76.3310 212° Southwest 365 420 34,000  Level FlightAware
01:43PM 42.9460 -76.3790 212° Southwest 365 420 34,000  Level FlightAware
01:44PM 42.8890 -76.4260 211° Southwest 363 418 34,000  Level FlightAware
01:45PM 42.8230 -76.4800 211° Southwest 361 415 34,000 -240 Level FlightAware
01:45PM 42.7670 -76.5260 211° Southwest 358 412 33,700 -1,680 Descending FlightAware
01:46PM 42.7040 -76.5780 211° Southwest 358 412 31,700 -2,520 Descending FlightAware
01:47PM 42.6470 -76.6250 211° Southwest 348 400 30,200 -1,320 Descending FlightAware
01:47PM 42.5930 -76.6690 211° Southwest 343 395 30,000 -180 Descending FlightAware
01:48PM 42.5320 -76.7190 211° Southwest 350 403 30,000  Level FlightAware
01:49PM 42.4760 -76.7640 211° Southwest 352 405 30,000  Level FlightAware
01:50PM 42.4120 -76.8160 211° Southwest 352 405 30,000  Level FlightAware
01:50PM 42.3550 -76.8620 211° Southwest 352 405 30,000  Level FlightAware
01:51PM 42.2980 -76.9070 210° Southwest 354 407 30,000  Level FlightAware
01:52PM 42.2350 -76.9580 211° Southwest 356 410 30,000 -180 Level FlightAware
01:52PM 42.1780 -77.0030 210° Southwest 362 417 29,800 -900 Descending FlightAware
01:53PM 42.1130 -77.0560 211° Southwest 368 423 28,800 -1,200 Descending FlightAware
01:54PM 42.0590 -77.0980 210° Southwest 367 422 28,100 -600 Descending FlightAware
01:55PM 41.9910 -77.1520 211° Southwest 366 421 28,000 -120 Descending FlightAware
01:55PM 41.9320 -77.1990 211° Southwest 368 423 28,000  Level FlightAware
01:56PM 41.8710 -77.2470 210° Southwest 366 421 28,000  Level FlightAware
01:57PM 41.8050 -77.2990 210° Southwest 367 422 28,000  Level FlightAware
01:57PM 41.7480 -77.3440 211° Southwest 368 423 28,000  Level FlightAware
01:58PM 41.6800 -77.3960 210° Southwest 369 425 28,000  Level FlightAware
01:59PM 41.6210 -77.4420 210° Southwest 369 425 28,000  Level FlightAware
01:59PM 41.5630 -77.4880 211° Southwest 370 426 28,000  Level FlightAware
02:00PM 41.5020 -77.5350 210° Southwest 371 427 28,000  Level FlightAware
02:01PM 41.4370 -77.5850 210° Southwest 372 428 28,000  Level FlightAware
02:02PM 41.3740 -77.6340 210° Southwest 372 428 28,000  Level FlightAware
02:02PM 41.3110 -77.6820 210° Southwest 373 429 28,000 -420 Level FlightAware
02:03PM 41.2510 -77.7270 209° Southwest 375 432 27,500 -1,140 Descending FlightAware
02:04PM 41.1840 -77.7790 210° Southwest 379 436 26,400 -1,440 Descending FlightAware
02:04PM 41.1250 -77.8240 210° Southwest 381 438 25,500 -1,560 Descending FlightAware
02:05PM 41.0520 -77.8790 210° Southwest 387 445 24,200 -1,800 Descending FlightAware
02:06PM 40.9900 -77.9270 210° Southwest 393 452 23,000 -2,280 Descending FlightAware
02:06PM 40.9350 -77.9480 196° South 440 506 21,600 -1,320 Descending FlightAware
02:07PM 40.8670 -77.9480 180° South 440 506 21,600  Level FlightAware
02:07PM 40.7980 -77.9480 180° South 440 506 21,600  Level FlightAware
02:08PM 40.7110 -77.9480 180° South 440 506 21,600 -1,080 Level FlightAware
02:10PM 40.5640 -77.5830 118° Southeast 449 517 19,000 -1,200 Descending FlightAware
02:11PM 40.4990 -77.5170 142° Southeast 452 520 19,000 -660 Level FlightAware
02:13PM 40.3120 -77.3230 142° Southeast 434 499 17,400 -960 Descending FlightAware
02:13PM 40.2470 -77.2570 142° Southeast 431 496 16,500 -1,140 Descending FlightAware
02:14PM 40.1720 -77.1990 149° Southeast 408 470 15,800 -1,080 Descending FlightAware
02:15PM 40.1040 -77.1820 169° South 385 443 15,000 -1,380 Descending FlightAware
02:15PM 40.0220 -77.1870 183° South 386 444 14,000 -1,380 Descending FlightAware
02:16PM 39.9410 -77.1920 183° South 383 441 13,100 -780 Descending FlightAware
02:17PM 39.8830 -77.1950 182° South 383 441 13,000 -360 Descending FlightAware
02:17PM 39.8220 -77.2040 186° South 371 427 12,700 -600 Descending FlightAware
02:17PM 39.8020 -77.2190 210° Southwest 359 413 12,500 -1,440 Descending FlightAware
02:18PM 39.7430 -77.2590 208° Southwest 357 411 11,400 -1,500 Descending FlightAware
02:19PM 39.6750 -77.2960 203° Southwest 335 386 10,400 -840 Descending FlightAware
02:25PM 39.2240 -77.4430 194° South 244 281 6,000 -840 Descending FlightAware
02:26PM 39.1370 -77.4460 182° South 204 235 4,500 -1,140 Descending FlightAware
02:27PM 39.1240 -77.4470 183° South 197 227 4,200 -1,200 Descending FlightAware
02:27PM 39.1080 -77.4470 180° South 185 213 3,800 -540 Descending FlightAware
02:27PM 39.0870 -77.4480 182° South 185 213 3,800  Level FlightAware